Time,TemperatureF,DewpointF,PressureIn,WindDirection,WindDirectionDegrees,WindSpeedMPH,WindSpeedGustMPH,Humidity,HourlyPrecipIn,Conditions,Clouds,dailyrainin,SolarRadiationWatts/m^2,SoftwareType,DateUTC
2013-11-11 00:00:00,34.4,31.5,30.17,South,179,0.0,2.0,89,0.00,,,0.00,0,Wunderground v.1.15,2013-11-11 07:00:00,
2013-11-11 00:10:00,34.2,31.3,30.18,South,179,0.0,0.0,89,0.00,,,0.00,0,Wunderground v.1.15,2013-11-11 07:10:00,
2013-11-11 00:20:00,34.1,31.2,30.18,South,177,1.0,1.0,89,0.00,,,0.00,0,Wunderground v.1.15,2013-11-11 07:20:00,
2013-11-11 00:30:00,33.9,31.0,30.18,South,176,0.0,0.0,89,0.00,,,0.00,0,Wunderground v.1.15,2013-11-11 07:30:00,
2013-11-11 00:40:00,33.9,31.0,30.18,South,175,1.0,1.0,89,0.00,,,0.00,0,Wunderground v.1.15,2013-11-11 07:40:00,
2013-11-11 00:50:00,34.3,31.7,30.19,South,170,2.0,4.0,90,0.00,,,0.00,0,Wunderground v.1.15,2013-11-11 07:50:00,
2013-11-11 01:00:00,34.4,31.5,30.19,South,169,1.0,1.0,89,0.00,,,0.00,0,Wunderground v.1.15,2013-11-11 08:00:00,
2013-11-11 01:10:00,34.4,31.5,30.19,South,169,2.0,4.0,89,0.00,,,0.00,0,Wunderground v.1.15,2013-11-11 08:10:00,
2013-11-11 01:20:00,34.5,31.6,30.19,SSE,163,2.0,2.0,89,0.00,,,0.00,0,Wunderground v.1.15,2013-11-11 08:20:00,
2013-11-11 01:30:00,34.5,31.6,30.19,SSE,163,1.0,1.0,89,0.00,,,0.00,0,Wunderground v.1.15,2013-11-11 08:30:00,
2013-11-11 01:40:00,34.4,31.5,30.19,SSE,163,0.0,0.0,89,0.00,,,0.00,0,Wunderground v.1.15,2013-11-11 08:40:00,
2013-11-11 01:50:00,34.4,31.5,30.20,SSE,163,0.0,0.0,89,0.00,,,0.00,0,Wunderground v.1.15,2013-11-11 08:50:00,
2013-11-11 02:00:00,34.4,31.5,30.20,SSE,163,0.0,0.0,89,0.00,,,0.00,0,Wunderground v.1.15,2013-11-11 09:00:00,
2013-11-11 02:10:00,34.4,31.5,30.21,SSE,163,0.0,0.0,89,0.00,,,0.00,0,Wunderground v.1.15,2013-11-11 09:10:00,
2013-11-11 02:20:00,34.4,31.5,30.21,SSE,163,0.0,0.0,89,0.00,,,0.00,0,Wunderground v.1.15,2013-11-11 09:20:00,
2013-11-11 02:30:00,34.4,31.5,30.21,SSE,163,0.0,0.0,89,0.00,,,0.00,0,Wunderground v.1.15,2013-11-11 09:30:00,
2013-11-11 02:40:00,34.4,31.5,30.21,SSE,163,0.0,0.0,89,0.00,,,0.00,0,Wunderground v.1.15,2013-11-11 09:40:00,
2013-11-11 02:50:00,34.4,31.5,30.22,SSE,163,0.0,0.0,89,0.00,,,0.00,0,Wunderground v.1.15,2013-11-11 09:50:00,
2013-11-11 03:00:00,34.4,31.5,30.22,SSE,163,0.0,0.0,89,0.00,,,0.00,0,Wunderground v.1.15,2013-11-11 10:00:00,
2013-11-11 03:10:00,34.6,31.7,30.22,SSE,163,0.0,0.0,89,0.00,,,0.00,0,Wunderground v.1.15,2013-11-11 10:10:00,
2013-11-11 03:40:00,34.6,31.7,30.23,SSE,163,0.0,0.0,89,0.00,,,0.00,0,Wunderground v.1.15,2013-11-11 10:40:00,
2013-11-11 03:50:00,34.4,31.5,30.23,SSE,163,0.0,0.0,89,0.00,,,0.00,0,Wunderground v.1.15,2013-11-11 10:50:00,
2013-11-11 04:00:00,34.4,31.5,30.23,SSE,163,0.0,0.0,89,0.00,,,0.00,0,Wunderground v.1.15,2013-11-11 11:00:00,
2013-11-11 04:10:00,34.4,31.5,30.24,SSE,163,0.0,0.0,89,0.00,,,0.00,0,Wunderground v.1.15,2013-11-11 11:10:00,
2013-11-11 04:20:00,34.1,31.2,30.24,SSE,163,0.0,0.0,89,0.00,,,0.00,0,Wunderground v.1.15,2013-11-11 11:20:00,
2013-11-11 04:30:00,33.9,31.0,30.24,SSE,163,0.0,0.0,89,0.00,,,0.00,0,Wunderground v.1.15,2013-11-11 11:30:00,
2013-11-11 04:40:00,33.6,30.7,30.25,SSE,163,0.0,0.0,89,0.00,,,0.00,0,Wunderground v.1.15,2013-11-11 11:40:00,
2013-11-11 04:50:00,33.5,30.6,30.25,SSE,163,0.0,0.0,89,0.00,,,0.00,0,Wunderground v.1.15,2013-11-11 11:50:00,
2013-11-11 05:00:00,33.4,30.5,30.25,SSE,163,0.0,0.0,89,0.00,,,0.00,0,Wunderground v.1.15,2013-11-11 12:00:00,
2013-11-11 05:10:00,33.3,30.4,30.26,SSE,163,0.0,0.0,89,0.00,,,0.00,0,Wunderground v.1.15,2013-11-11 12:10:00,
2013-11-11 05:20:00,33.3,30.7,30.26,SSE,163,0.0,0.0,90,0.00,,,0.00,0,Wunderground v.1.15,2013-11-11 12:20:00,
2013-11-11 05:30:00,33.4,30.8,30.26,SSE,163,0.0,0.0,90,0.00,,,0.00,0,Wunderground v.1.15,2013-11-11 12:30:00,
2013-11-11 05:40:00,33.5,30.9,30.26,SSE,163,0.0,0.0,90,0.00,,,0.00,0,Wunderground v.1.15,2013-11-11 12:40:00,
2013-11-11 05:50:00,34.0,31.4,30.26,South,176,1.0,2.0,90,0.00,,,0.00,0,Wunderground v.1.15,2013-11-11 12:50:00,
2013-11-11 06:00:00,33.8,31.2,30.26,South,175,1.0,1.0,90,0.00,,,0.00,0,Wunderground v.1.15,2013-11-11 13:00:00,
2013-11-11 06:10:00,33.7,30.8,30.27,South,174,0.0,1.0,89,0.00,,,0.00,0,Wunderground v.1.15,2013-11-11 13:10:00,
2013-11-11 06:20:00,33.5,30.6,30.27,South,171,1.0,1.0,89,0.00,,,0.00,0,Wunderground v.1.15,2013-11-11 13:20:00,
2013-11-11 06:30:00,33.4,30.8,30.27,South,170,2.0,2.0,90,0.00,,,0.00,0,Wunderground v.1.15,2013-11-11 13:30:00,
2013-11-11 06:40:00,33.3,30.7,30.27,South,170,0.0,0.0,90,0.00,,,0.00,0,Wunderground v.1.15,2013-11-11 13:40:00,
2013-11-11 06:50:00,33.3,30.7,30.27,South,171,1.0,1.0,90,0.00,,,0.00,0,Wunderground v.1.15,2013-11-11 13:50:00,
2013-11-11 07:00:00,33.2,30.6,30.27,South,171,0.0,0.0,90,0.00,,,0.00,0,Wunderground v.1.15,2013-11-11 14:00:00,
2013-11-11 07:10:00,33.1,30.5,30.29,South,171,0.0,0.0,90,0.00,,,0.00,0,Wunderground v.1.15,2013-11-11 14:10:00,
2013-11-11 07:20:00,33.2,30.6,30.29,South,171,0.0,0.0,90,0.00,,,0.00,0,Wunderground v.1.15,2013-11-11 14:20:00,
2013-11-11 07:30:00,32.9,30.3,30.29,South,171,0.0,0.0,90,0.00,,,0.00,0,Wunderground v.1.15,2013-11-11 14:30:00,
2013-11-11 07:40:00,32.8,30.2,30.30,South,171,1.0,5.0,90,0.00,,,0.00,5,Wunderground v.1.15,2013-11-11 14:40:00,
2013-11-11 07:50:00,32.8,30.2,30.30,SSE,168,3.0,3.0,90,0.00,,,0.00,12,Wunderground v.1.15,2013-11-11 14:50:00,
2013-11-11 08:00:00,32.9,30.3,30.30,SSE,166,2.0,2.0,90,0.00,,,0.00,19,Wunderground v.1.15,2013-11-11 15:00:00,
2013-11-11 08:10:00,33.0,30.4,30.31,SSE,167,0.0,0.0,90,0.00,,,0.00,28,Wunderground v.1.15,2013-11-11 15:10:00,
2013-11-11 08:20:00,33.2,30.6,30.31,SSE,166,0.0,0.0,90,0.00,,,0.00,53,Wunderground v.1.15,2013-11-11 15:20:00,
2013-11-11 08:30:00,34.2,31.6,30.31,SSE,165,3.0,5.0,90,0.00,,,0.00,77,Wunderground v.1.15,2013-11-11 15:30:00,
2013-11-11 08:40:00,34.4,31.5,30.31,South,170,4.0,5.0,89,0.00,,,0.00,53,Wunderground v.1.15,2013-11-11 15:40:00,
2013-11-11 08:50:00,34.6,31.7,30.31,SSE,161,4.0,4.0,89,0.00,,,0.00,84,Wunderground v.1.15,2013-11-11 15:50:00,
2013-11-11 09:00:00,35.4,32.2,30.31,SSE,161,4.0,5.0,88,0.00,,,0.00,162,Wunderground v.1.15,2013-11-11 16:00:00,
2013-11-11 09:10:00,36.4,32.9,30.32,SE,146,4.0,4.0,87,0.00,,,0.00,151,Wunderground v.1.15,2013-11-11 16:10:00,
2013-11-11 09:20:00,37.8,34.0,30.31,SSE,147,2.0,2.0,86,0.00,,,0.00,91,Wunderground v.1.15,2013-11-11 16:20:00,
2013-11-11 09:30:00,39.5,35.1,30.31,SE,146,1.0,2.0,84,0.00,,,0.00,123,Wunderground v.1.15,2013-11-11 16:30:00,
2013-11-11 13:10:00,52.7,38.8,30.30,NNE,33,0.0,2.0,59,0.00,,,0.00,262,Wunderground v.1.15,2013-11-11 20:10:00,
2013-11-11 13:20:00,53.1,39.1,30.30,NNE,15,0.0,0.0,59,0.00,,,0.00,250,Wunderground v.1.15,2013-11-11 20:20:00,
2013-11-11 13:30:00,52.9,39.0,30.30,North,360,0.0,0.0,59,0.00,,,0.00,181,Wunderground v.1.15,2013-11-11 20:30:00,
2013-11-11 13:40:00,52.5,39.0,30.30,North,355,0.0,0.0,60,0.00,,,0.00,179,Wunderground v.1.15,2013-11-11 20:40:00,
2013-11-11 13:50:00,52.4,38.9,30.30,North,5,0.0,0.0,60,0.00,,,0.00,181,Wunderground v.1.15,2013-11-11 20:50:00,
2013-11-11 14:00:00,52.3,38.0,30.30,North,355,0.0,0.0,58,0.00,,,0.00,214,Wunderground v.1.15,2013-11-11 21:00:00,
2013-11-11 14:10:00,52.5,38.1,30.30,North,360,0.0,0.0,58,0.00,,,0.00,214,Wunderground v.1.15,2013-11-11 21:10:00,
2013-11-11 14:20:00,52.7,38.3,30.30,NNE,22,0.0,0.0,58,0.00,,,0.00,165,Wunderground v.1.15,2013-11-11 21:20:00,
2013-11-11 14:30:00,52.2,38.7,30.30,NNE,28,2.0,2.0,60,0.00,,,0.00,132,Wunderground v.1.15,2013-11-11 21:30:00,
2013-11-11 14:40:00,51.9,38.4,30.30,NNE,21,1.0,1.0,60,0.00,,,0.00,327,Wunderground v.1.15,2013-11-11 21:40:00,
2013-11-11 14:50:00,53.0,38.6,30.30,North,360,1.0,1.0,58,0.00,,,0.00,120,Wunderground v.1.15,2013-11-11 21:50:00,
2013-11-11 15:00:00,53.1,38.7,30.30,NNW,332,0.0,0.0,58,0.00,,,0.00,148,Wunderground v.1.15,2013-11-11 22:00:00,
2013-11-11 15:10:00,54.1,39.2,30.29,North,350,0.0,0.0,57,0.00,,,0.00,221,Wunderground v.1.15,2013-11-11 22:10:00,
2013-11-11 15:20:00,55.0,38.6,30.29,NNW,334,0.0,5.0,54,0.00,,,0.00,186,Wunderground v.1.15,2013-11-11 22:20:00,
2013-11-11 15:30:00,54.6,37.8,30.29,North,355,0.0,0.0,53,0.00,,,0.00,54,Wunderground v.1.15,2013-11-11 22:30:00,
2013-11-11 15:40:00,53.9,37.6,30.28,North,355,0.0,0.0,54,0.00,,,0.00,84,Wunderground v.1.15,2013-11-11 22:40:00,
2013-11-11 15:50:00,54.7,37.9,30.28,North,355,0.0,0.0,53,0.00,,,0.00,141,Wunderground v.1.15,2013-11-11 22:50:00,
2013-11-11 16:00:00,54.6,37.8,30.28,North,355,0.0,0.0,53,0.00,,,0.00,121,Wunderground v.1.15,2013-11-11 23:00:00,
2013-11-11 16:10:00,53.8,38.0,30.29,North,355,0.0,0.0,55,0.00,,,0.00,58,Wunderground v.1.15,2013-11-11 23:10:00,
2013-11-11 16:20:00,52.6,38.2,30.30,North,355,0.0,0.0,58,0.00,,,0.00,26,Wunderground v.1.15,2013-11-11 23:20:00,
2013-11-11 16:30:00,51.9,38.9,30.30,North,355,0.0,0.0,61,0.00,,,0.00,19,Wunderground v.1.15,2013-11-11 23:30:00,
2013-11-11 16:40:00,49.9,37.8,30.30,North,355,0.0,0.0,63,0.00,,,0.00,14,Wunderground v.1.15,2013-11-11 23:40:00,
2013-11-11 16:50:00,48.5,37.7,30.30,North,355,0.0,0.0,66,0.00,,,0.00,9,Wunderground v.1.15,2013-11-11 23:50:00,
2013-11-11 17:00:00,47.3,37.6,30.30,North,355,0.0,0.0,69,0.00,,,0.00,5,Wunderground v.1.15,2013-11-12 00:00:00,
2013-11-11 17:10:00,46.0,36.8,30.30,North,355,0.0,0.0,70,0.00,,,0.00,0,Wunderground v.1.15,2013-11-12 00:10:00,
2013-11-11 17:20:00,44.4,35.9,30.31,North,350,0.0,0.0,72,0.00,,,0.00,0,Wunderground v.1.15,2013-11-12 00:20:00,
2013-11-11 17:30:00,43.3,35.2,30.31,NW,307,0.0,0.0,73,0.00,,,0.00,0,Wunderground v.1.15,2013-11-12 00:30:00,
2013-11-11 17:40:00,41.5,33.5,30.31,WNW,295,0.0,0.0,73,0.00,,,0.00,0,Wunderground v.1.15,2013-11-12 00:40:00,
2013-11-11 17:50:00,41.1,34.4,30.32,West,264,0.0,0.0,77,0.00,,,0.00,0,Wunderground v.1.15,2013-11-12 00:50:00,
2013-11-11 18:00:00,40.0,33.0,30.32,West,265,0.0,0.0,76,0.00,,,0.00,0,Wunderground v.1.15,2013-11-12 01:00:00,
2013-11-11 18:10:00,38.8,32.5,30.32,SW,229,1.0,1.0,78,0.00,,,0.00,0,Wunderground v.1.15,2013-11-12 01:10:00,
2013-11-11 18:20:00,38.0,32.1,30.32,SW,229,0.0,0.0,79,0.00,,,0.00,0,Wunderground v.1.15,2013-11-12 01:20:00,
2013-11-11 18:30:00,37.6,31.7,30.32,SW,229,0.0,0.0,79,0.00,,,0.00,0,Wunderground v.1.15,2013-11-12 01:30:00,
2013-11-11 18:40:00,36.8,30.6,30.32,SW,229,0.0,0.0,78,0.00,,,0.00,0,Wunderground v.1.15,2013-11-12 01:40:00,
2013-11-11 18:50:00,36.0,30.4,30.33,SW,229,0.0,0.0,80,0.00,,,0.00,0,Wunderground v.1.15,2013-11-12 01:50:00,
2013-11-11 19:00:00,34.4,28.9,30.33,SW,229,0.0,0.0,80,0.00,,,0.00,0,Wunderground v.1.15,2013-11-12 02:00:00,
2013-11-11 19:10:00,34.1,29.2,30.34,SW,229,0.0,0.0,82,0.00,,,0.00,0,Wunderground v.1.15,2013-11-12 02:10:00,
2013-11-11 19:20:00,34.1,29.5,30.34,SW,229,0.0,0.0,83,0.00,,,0.00,0,Wunderground v.1.15,2013-11-12 02:20:00,
2013-11-11 19:30:00,33.7,29.4,30.34,SW,229,0.0,0.0,84,0.00,,,0.00,0,Wunderground v.1.15,2013-11-12 02:30:00,
2013-11-11 19:40:00,33.5,29.2,30.34,SW,229,0.0,0.0,84,0.00,,,0.00,0,Wunderground v.1.15,2013-11-12 02:40:00,
2013-11-11 19:50:00,32.8,28.5,30.34,SW,229,0.0,0.0,84,0.00,,,0.00,0,Wunderground v.1.15,2013-11-12 02:50:00,
2013-11-11 20:00:00,31.6,27.3,30.34,SW,229,0.0,0.0,84,0.00,,,0.00,0,Wunderground v.1.15,2013-11-12 03:00:00,
2013-11-11 20:10:00,30.6,26.3,30.34,SW,229,0.0,0.0,84,0.00,,,0.00,0,Wunderground v.1.15,2013-11-12 03:10:00,
2013-11-11 20:20:00,30.2,26.2,30.34,SW,229,0.0,0.0,85,0.00,,,0.00,0,Wunderground v.1.15,2013-11-12 03:20:00,
2013-11-11 20:30:00,29.8,26.1,30.34,SW,229,0.0,0.0,86,0.00,,,0.00,0,Wunderground v.1.15,2013-11-12 03:30:00,
2013-11-11 20:40:00,29.6,25.9,30.34,SW,229,0.0,0.0,86,0.00,,,0.00,0,Wunderground v.1.15,2013-11-12 03:40:00,
2013-11-11 20:50:00,29.2,25.5,30.34,SW,229,0.0,0.0,86,0.00,,,0.00,0,Wunderground v.1.15,2013-11-12 03:50:00,
2013-11-11 21:00:00,28.8,25.1,30.34,SW,229,0.0,0.0,86,0.00,,,0.00,0,Wunderground v.1.15,2013-11-12 04:00:00,
2013-11-11 21:10:00,28.6,25.2,30.35,SW,229,0.0,0.0,87,0.00,,,0.00,0,Wunderground v.1.15,2013-11-12 04:10:00,
2013-11-11 21:20:00,28.4,25.0,30.35,SW,229,0.0,0.0,87,0.00,,,0.00,0,Wunderground v.1.15,2013-11-12 04:20:00,
2013-11-11 21:30:00,28.1,24.7,30.35,SW,229,0.0,0.0,87,0.00,,,0.00,0,Wunderground v.1.15,2013-11-12 04:30:00,
2013-11-11 21:40:00,27.6,24.2,30.36,SW,229,0.0,0.0,87,0.00,,,0.00,0,Wunderground v.1.15,2013-11-12 04:40:00,
2013-11-11 21:50:00,27.5,24.1,30.35,SW,229,0.0,0.0,87,0.00,,,0.00,0,Wunderground v.1.15,2013-11-12 04:50:00,
2013-11-11 22:00:00,27.3,23.9,30.35,SW,229,0.0,0.0,87,0.00,,,0.00,0,Wunderground v.1.15,2013-11-12 05:00:00,
2013-11-11 22:10:00,27.1,23.7,30.36,SW,229,0.0,0.0,87,0.00,,,0.00,0,Wunderground v.1.15,2013-11-12 05:10:00,
2013-11-11 22:20:00,26.9,23.5,30.36,SW,229,0.0,0.0,87,0.00,,,0.00,0,Wunderground v.1.15,2013-11-12 05:20:00,
2013-11-11 22:30:00,26.8,23.7,30.36,SW,229,0.0,0.0,88,0.00,,,0.00,0,Wunderground v.1.15,2013-11-12 05:30:00,
2013-11-11 22:40:00,26.3,23.2,30.36,SW,229,0.0,0.0,88,0.00,,,0.00,0,Wunderground v.1.15,2013-11-12 05:40:00,
2013-11-11 22:50:00,26.3,23.2,30.36,SW,229,0.0,0.0,88,0.00,,,0.00,0,Wunderground v.1.15,2013-11-12 05:50:00,
2013-11-11 23:00:00,25.8,22.7,30.36,SW,229,0.0,0.0,88,0.00,,,0.00,0,Wunderground v.1.15,2013-11-12 06:00:00,
2013-11-11 23:10:00,25.4,22.3,30.37,SW,229,0.0,0.0,88,0.00,,,0.00,0,Wunderground v.1.15,2013-11-12 06:10:00,
2013-11-11 23:20:00,25.2,22.1,30.37,SW,229,0.0,0.0,88,0.00,,,0.00,0,Wunderground v.1.15,2013-11-12 06:20:00,
2013-11-11 23:30:00,24.8,21.8,30.37,SW,229,0.0,0.0,88,0.00,,,0.00,0,Wunderground v.1.15,2013-11-12 06:30:00,
2013-11-11 23:40:00,24.4,21.4,30.37,SW,229,0.0,0.0,88,0.00,,,0.00,0,Wunderground v.1.15,2013-11-12 06:40:00,
2013-11-11 23:50:00,24.3,21.3,30.37,SW,229,0.0,0.0,88,0.00,,,0.00,0,Wunderground v.1.15,2013-11-12 06:50:00,